OLBO2: North Canadian River

Data processed at Fri May 24 2019 23:50


All information presented herein is the property of the government of the United States of America and may be revised or deleted at any time without prior notice.
Dissemination of this information without the expressed written consent of the Public Affairs Office, Tulsa District U.S. Army Corps of Engineers is strictly prohibited.
These data are gathered electronically and, as presented, have not undergone any form of quality control. These data are not guaranteed to be valid or correct.
Go to home page.
Go to station list.
Go to home page.

Upstream stations:

Downstream station:
Previous Day
Next Day
Current Day
    
SHEF ID:       OLBO2     North Canadian River blw Lk Over
STATION TYPE:  
Regulating: Stage =    24.00, Flow =     9206

               PRECIP     STAGE  RIV-FLOW  WTR-TEMP   DIS-OXY   CONDUCT  BAT-LOAD
                   in        ft       cfs         F      mg/l   umho/cm      volt
              Ccp-Rev   Ccp-Rev   Ccp-Rev   Ccp-Rev   Ccp-Rev   Ccp-Rev   Ccp-Rev
(US/Central)
05/24 00:00      0.00     19.03      5829     68.95      0.00       338     12.65
05/24 01:00      0.00     18.72      5641     68.95      0.00       331     12.60
05/24 02:00      0.00     18.58      5556     68.95      0.00       330     12.60
05/24 03:00      0.00     18.44      5473     68.94      0.00       337     12.60
05/24 04:00      0.00     18.19      5324     68.92      0.00       332     12.54
05/24 05:00      0.00     18.10      5271     68.88      0.00       335     12.54
05/24 06:00      0.00     17.80      5096     68.86      0.00       326     12.54
05/24 07:00      0.00     17.63      4998     68.81      0.00       318     12.54
05/24 08:00      0.00     17.26      4788     68.83      0.00       322     12.60
05/24 09:00      0.00     17.02      4653     68.86      0.00       328     12.77
05/24 10:00      0.00     17.00      4642     69.12      0.00       316     13.53
05/24 11:00      0.00     16.87      4570     69.30      0.00       344     13.71
05/24 12:00      0.00     16.87      4570     69.35      0.00       335     13.48
05/24 13:00      0.00     16.78      4520     69.57      0.00       324     13.65
05/24 14:00      0.00     16.58      4411     69.85      0.00       314     13.77
05/24 15:00      0.00     15.01      3591     70.25      0.00       316     13.71
05/24 16:00      0.00     14.57      3374     70.56      0.00       278     13.71
05/24 17:00      0.00     14.56      3370     70.70      0.00       288     13.36
05/24 18:00      0.00     16.67      4460     70.81      0.00       375     13.36
05/24 19:00      0.00     17.29      4805     70.97      0.00       367     13.24
05/24 20:00      0.00     17.21      4759     71.08      0.00       371     13.00
05/24 21:00      0.00     16.54      4389     71.10      0.00       391     12.77
05/24 22:00      0.40     16.07      4137     70.95      0.00       383     12.65
05/24 23:00      0.12     15.77      3979      ----      ----      ----     12.65